Time;durP1;ratioP1;P1;durP2;ratioP2;P2;SDS_P1;SDS_P2;PMS_P1;PMS_P2;Temp;Humidity;BMP_temperature;BMP_pressure;BME280_temperature;BME280_humidity;BME280_pressure;Samples;Min_cycle;Max_cycle;Signal;HPM_P1;HPM_P2
2022/11/16 00:02:26;;;;;;;;;;;12.30;99.90;;;;;;8423714;28;19930;-75
2022/11/16 00:06:28;;;;;;;;;;;12.30;99.90;;;;;;8417636;28;20283;-75
2022/11/16 00:10:29;;;;;;;;;;;12.30;99.90;;;;;;8414970;28;19946;-75
2022/11/16 00:14:32;;;;;;;;;;;12.40;99.90;;;;;;8407395;28;19939;-75
2022/11/16 00:18:34;;;;;;;;;;;12.40;99.90;;;;;;8396736;28;19977;-75
2022/11/16 00:22:36;;;;;;;;;;;12.30;99.90;;;;;;8401211;28;19932;-75
2022/11/16 00:26:37;;;;;;;;;;;12.40;99.90;;;;;;8413445;28;19967;-75
2022/11/16 00:30:39;;;;;;;;;;;12.30;99.90;;;;;;8419412;28;20385;-76
2022/11/16 00:34:40;;;;;;;;;;;12.40;99.90;;;;;;8411925;28;20016;-76
2022/11/16 00:38:42;;;;;;;;;;;12.40;99.90;;;;;;8418772;28;19947;-75
2022/11/16 00:42:44;;;;;;;;;;;12.40;99.90;;;;;;8417306;28;19924;-75
2022/11/16 00:46:45;;;;;;;;;;;12.40;99.90;;;;;;8402110;28;19930;-76
2022/11/16 00:50:47;;;;;;;;;;;12.40;99.90;;;;;;8421060;28;19932;-76
2022/11/16 00:54:49;;;;;;;;;;;12.40;99.90;;;;;;8412336;28;20481;-76
2022/11/16 00:58:50;;;;;;;;;;;12.40;99.90;;;;;;8409614;28;19991;-76
2022/11/16 01:02:53;;;;;;;;;;;12.40;99.90;;;;;;8408846;28;20019;-75
2022/11/16 01:06:54;;;;;;;;;;;12.40;99.90;;;;;;8421910;28;20019;-76
2022/11/16 01:12:07;;;;;;;;;;;12.40;99.90;;;;;;8425882;28;19931;-76
2022/11/16 01:15:19;;;;;;;;;;;12.40;99.90;;;;;;8421720;28;19924;-76
2022/11/16 01:19:21;;;;;;;;;;;12.40;99.90;;;;;;8407278;28;20294;-76
2022/11/16 01:23:22;;;;;;;;;;;12.40;99.90;;;;;;8390867;28;19935;-76
2022/11/16 01:27:24;;;;;;;;;;;12.50;99.90;;;;;;8426645;28;20320;-75
2022/11/16 01:31:26;;;;;;;;;;;12.40;99.90;;;;;;8423524;28;20368;-75
2022/11/16 01:35:27;;;;;;;;;;;12.50;99.90;;;;;;8403336;28;19951;-76
2022/11/16 01:39:29;;;;;;;;;;;12.40;99.90;;;;;;8430282;28;19939;-75
2022/11/16 01:43:47;;;;;;;;;;;12.50;99.90;;;;;;8426700;28;19932;-76
2022/11/16 01:47:49;;;;;;;;;;;12.50;99.90;;;;;;8427483;28;19998;-76
2022/11/16 01:51:53;;;;;;;;;;;12.50;99.90;;;;;;8429999;28;19935;-76
2022/11/16 01:55:55;;;;;;;;;;;12.50;99.90;;;;;;8412246;28;20015;-76
2022/11/16 01:59:57;;;;;;;;;;;12.50;99.90;;;;;;8421161;28;19924;-76
2022/11/16 02:03:59;;;;;;;;;;;12.50;99.90;;;;;;8421429;28;20678;-75
2022/11/16 02:12:51;;;;;;;;;;;12.50;99.90;;;;;;8428578;28;19930;-76
2022/11/16 02:17:05;;;;;;;;;;;12.50;99.90;;;;;;8409941;28;20347;-76
2022/11/16 02:21:06;;;;;;;;;;;12.50;99.90;;;;;;8424307;28;19930;-76
2022/11/16 02:25:15;;;;;;;;;;;12.50;99.90;;;;;;8436536;28;20379;-76
2022/11/16 02:29:26;;;;;;;;;;;12.40;99.90;;;;;;8423766;28;19934;-76
2022/11/16 02:33:34;;;;;;;;;;;12.50;99.90;;;;;;8417751;28;19938;-75
2022/11/16 02:37:43;;;;;;;;;;;12.50;99.90;;;;;;8435563;28;19956;-76
2022/11/16 02:41:46;;;;;;;;;;;12.50;99.90;;;;;;8403145;28;20027;-76
2022/11/16 02:45:49;;;;;;;;;;;12.50;99.90;;;;;;8421337;28;20399;-76
2022/11/16 02:49:54;;;;;;;;;;;12.50;99.90;;;;;;8418760;28;19932;-76
2022/11/16 02:54:03;;;;;;;;;;;12.50;99.90;;;;;;8394678;28;20357;-76
2022/11/16 02:58:08;;;;;;;;;;;12.50;99.90;;;;;;8393797;28;19930;-77
2022/11/16 03:02:22;;;;;;;;;;;12.40;99.90;;;;;;8409920;28;19925;-76
2022/11/16 03:06:28;;;;;;;;;;;12.40;99.90;;;;;;8427068;27;19963;-76
2022/11/16 03:14:52;;;;;;;;;;;12.30;99.90;;;;;;8413626;28;20019;-76
2022/11/16 03:18:57;;;;;;;;;;;12.30;99.90;;;;;;8411210;28;20306;-76
2022/11/16 03:23:00;;;;;;;;;;;12.30;99.90;;;;;;8413727;28;20098;-76
2022/11/16 03:27:11;;;;;;;;;;;12.30;99.90;;;;;;8415718;28;20014;-77
2022/11/16 03:31:15;;;;;;;;;;;12.30;99.90;;;;;;8412556;28;20336;-77
2022/11/16 03:35:33;;;;;;;;;;;12.20;99.90;;;;;;8423129;28;19942;-77
2022/11/16 03:39:36;;;;;;;;;;;12.20;99.90;;;;;;8387992;28;20286;-77
2022/11/16 03:43:39;;;;;;;;;;;12.20;99.90;;;;;;8404555;28;19934;-77
2022/11/16 03:47:41;;;;;;;;;;;12.10;99.90;;;;;;8417599;28;20445;-77
2022/11/16 04:01:49;;;;;;;;;;;11.90;99.90;;;;;;8420307;28;19939;-76
2022/11/16 04:40:34;;;;;;;;;;;11.60;99.90;;;;;;8411683;28;19935;-76
2022/11/16 04:48:56;;;;;;;;;;;11.60;99.90;;;;;;8431469;28;19978;-77
2022/11/16 04:52:57;;;;;;;;;;;11.60;99.90;;;;;;8396644;28;19924;-76
2022/11/16 04:56:59;;;;;;;;;;;11.50;99.90;;;;;;8414932;28;20016;-76
2022/11/16 05:01:01;;;;;;;;;;;11.50;99.90;;;;;;8407461;28;19951;-77
2022/11/16 05:05:03;;;;;;;;;;;11.40;99.90;;;;;;8413716;28;19936;-76
2022/11/16 05:09:04;;;;;;;;;;;11.40;99.90;;;;;;8427577;28;19931;-76
2022/11/16 05:13:06;;;;;;;;;;;11.40;99.90;;;;;;8417454;28;19931;-77
2022/11/16 05:17:07;;;;;;;;;;;11.40;99.90;;;;;;8420940;28;19930;-77
2022/11/16 05:21:09;;;;;;;;;;;11.30;99.90;;;;;;8426524;28;19924;-77
2022/11/16 05:25:12;;;;;;;;;;;11.30;99.90;;;;;;8423093;28;19924;-76
2022/11/16 05:29:14;;;;;;;;;;;11.30;99.90;;;;;;8434300;28;19928;-76
2022/11/16 05:33:17;;;;;;;;;;;11.30;99.90;;;;;;8381129;28;19935;-76
2022/11/16 05:37:20;;;;;;;;;;;11.30;99.90;;;;;;8421294;28;20023;-76
2022/11/16 05:41:21;;;;;;;;;;;11.30;99.90;;;;;;8424263;28;19931;-76
2022/11/16 05:45:23;;;;;;;;;;;11.30;99.90;;;;;;8417967;28;20003;-77
2022/11/16 05:49:24;;;;;;;;;;;11.30;99.90;;;;;;8422794;28;19931;-77
2022/11/16 05:53:26;;;;;;;;;;;11.20;99.90;;;;;;8411113;28;19932;-76
2022/11/16 05:57:28;;;;;;;;;;;11.30;99.90;;;;;;8389259;28;20011;-76
2022/11/16 06:01:30;;;;;;;;;;;11.30;99.90;;;;;;8417770;28;20274;-77
2022/11/16 06:05:33;;;;;;;;;;;11.20;99.90;;;;;;8407379;28;19966;-77
2022/11/16 06:09:42;;;;;;;;;;;11.20;99.90;;;;;;8418232;28;20007;-76
2022/11/16 06:13:44;;;;;;;;;;;11.20;99.90;;;;;;8431427;28;20406;-76
2022/11/16 06:17:45;;;;;;;;;;;11.10;99.90;;;;;;8414887;28;19930;-76
2022/11/16 06:21:47;;;;;;;;;;;11.10;99.90;;;;;;8430449;28;20385;-77
2022/11/16 06:25:53;;;;;;;;;;;11.10;99.90;;;;;;8424481;28;19997;-76
2022/11/16 06:29:55;;;;;;;;;;;11.00;99.90;;;;;;8400756;28;19930;-76
2022/11/16 06:33:56;;;;;;;;;;;11.00;99.90;;;;;;8405224;28;19934;-76
2022/11/16 06:37:58;;;;;;;;;;;10.90;99.90;;;;;;8410720;28;19970;-76
2022/11/16 06:42:00;;;;;;;;;;;10.80;99.90;;;;;;8409754;28;19946;-76
2022/11/16 06:46:01;;;;;;;;;;;10.80;99.90;;;;;;8392571;28;19931;-76
2022/11/16 06:50:03;;;;;;;;;;;10.70;99.90;;;;;;8405198;28;19927;-76
2022/11/16 06:54:05;;;;;;;;;;;10.60;99.90;;;;;;8412006;28;19979;-76
2022/11/16 06:58:06;;;;;;;;;;;10.60;99.90;;;;;;8416824;28;19932;-76
2022/11/16 07:02:09;;;;;;;;;;;10.50;99.90;;;;;;8407457;28;19946;-76
2022/11/16 07:06:11;;;;;;;;;;;10.40;99.90;;;;;;8426766;28;20398;-76
2022/11/16 07:10:13;;;;;;;;;;;10.40;99.90;;;;;;8422786;28;19932;-76
2022/11/16 07:14:14;;;;;;;;;;;10.40;99.90;;;;;;8422909;28;19928;-77
2022/11/16 07:18:16;;;;;;;;;;;10.30;99.90;;;;;;8431775;28;19928;-76
2022/11/16 07:22:18;;;;;;;;;;;10.30;99.90;;;;;;8430620;28;19924;-76
2022/11/16 07:31:17;;;;;;;;;;;10.20;99.90;;;;;;8427084;28;19918;-76
2022/11/16 07:35:18;;;;;;;;;;;10.10;99.90;;;;;;8436350;28;19934;-76
2022/11/16 07:39:20;;;;;;;;;;;10.00;99.90;;;;;;8437762;28;19924;-76
2022/11/16 07:43:22;;;;;;;;;;;10.00;99.90;;;;;;8425056;28;19928;-76
2022/11/16 07:47:23;;;;;;;;;;;10.00;99.90;;;;;;8435670;28;19968;-76
2022/11/16 07:51:25;;;;;;;;;;;10.00;99.90;;;;;;8429030;28;19924;-76
2022/11/16 07:55:30;;;;;;;;;;;10.00;99.90;;;;;;8422661;28;20014;-76
2022/11/16 07:59:32;;;;;;;;;;;10.00;99.90;;;;;;8430051;28;19932;-76
2022/11/16 08:03:34;;;;;;;;;;;10.00;99.90;;;;;;8428559;28;20371;-76
2022/11/16 08:07:36;;;;;;;;;;;10.00;99.90;;;;;;8423643;28;20022;-76
2022/11/16 08:11:37;;;;;;;;;;;10.00;99.90;;;;;;8430209;28;19924;-76
2022/11/16 08:15:39;;;;;;;;;;;10.10;99.90;;;;;;8432557;28;20362;-76
2022/11/16 08:19:41;;;;;;;;;;;10.10;99.90;;;;;;8404550;28;20007;-76
2022/11/16 08:23:46;;;;;;;;;;;10.20;99.90;;;;;;8436124;28;20287;-76
2022/11/16 08:27:47;;;;;;;;;;;10.20;99.90;;;;;;8427124;28;20022;-76
2022/11/16 08:31:49;;;;;;;;;;;10.30;99.90;;;;;;8426061;28;19924;-76
2022/11/16 08:35:51;;;;;;;;;;;10.30;99.90;;;;;;8427120;28;20419;-76
2022/11/16 08:39:53;;;;;;;;;;;10.40;99.90;;;;;;8404341;28;20354;-76
2022/11/16 08:43:55;;;;;;;;;;;10.50;99.90;;;;;;8399247;28;19924;-76
2022/11/16 08:47:57;;;;;;;;;;;10.60;99.90;;;;;;8414971;28;20029;-76
2022/11/16 08:52:04;;;;;;;;;;;10.70;99.90;;;;;;8420318;28;19931;-76
2022/11/16 08:56:07;;;;;;;;;;;10.90;99.90;;;;;;8420881;28;20343;-76
2022/11/16 09:00:10;;;;;;;;;;;11.00;99.90;;;;;;8420477;28;19964;-76
2022/11/16 09:04:11;;;;;;;;;;;11.10;99.90;;;;;;8430765;28;19924;-76
2022/11/16 09:08:13;;;;;;;;;;;11.30;99.90;;;;;;8416555;28;20082;-76
2022/11/16 09:12:14;;;;;;;;;;;11.50;99.90;;;;;;8433650;28;19924;-76
2022/11/16 09:16:17;;;;;;;;;;;11.70;99.90;;;;;;8415815;28;20357;-77
2022/11/16 09:20:18;;;;;;;;;;;11.70;99.90;;;;;;8422067;28;19923;-76
2022/11/16 09:24:20;;;;;;;;;;;11.60;99.90;;;;;;8420683;28;19924;-76
2022/11/16 09:28:21;;;;;;;;;;;11.50;99.90;;;;;;8417964;28;19924;-76
2022/11/16 09:32:23;;;;;;;;;;;11.50;99.90;;;;;;8395665;28;19939;-76
2022/11/16 09:36:25;;;;;;;;;;;11.60;99.90;;;;;;8406609;28;19930;-75
2022/11/16 09:40:35;;;;;;;;;;;11.70;99.90;;;;;;8413460;28;20290;-76
2022/11/16 09:44:54;;;;;;;;;;;11.80;99.90;;;;;;8414700;28;19931;-75
2022/11/16 09:48:56;;;;;;;;;;;11.80;99.90;;;;;;8403133;28;19927;-76
2022/11/16 09:53:18;;;;;;;;;;;11.90;99.90;;;;;;8431457;28;19925;-76
2022/11/16 09:57:23;;;;;;;;;;;11.90;99.90;;;;;;8411520;28;19925;-76
2022/11/16 10:01:31;;;;;;;;;;;12.00;99.90;;;;;;8416130;28;19924;-76
2022/11/16 10:05:36;;;;;;;;;;;12.10;99.90;;;;;;8420542;28;20011;-76
2022/11/16 10:09:37;;;;;;;;;;;12.20;99.90;;;;;;8401717;28;19930;-76
2022/11/16 10:13:54;;;;;;;;;;;12.20;99.90;;;;;;8409887;28;19924;-77
2022/11/16 10:18:11;;;;;;;;;;;12.20;99.90;;;;;;8421020;28;20279;-76
2022/11/16 10:22:24;;;;;;;;;;;12.20;99.90;;;;;;8425414;28;20273;-76
2022/11/16 10:26:31;;;;;;;;;;;12.40;99.90;;;;;;8420522;28;19931;-76
2022/11/16 10:30:35;;;;;;;;;;;12.80;99.90;;;;;;8414126;28;19923;-76
2022/11/16 10:34:50;;;;;;;;;;;13.10;99.90;;;;;;8431934;28;20291;-76
2022/11/16 10:38:55;;;;;;;;;;;13.60;99.90;;;;;;8422478;28;19925;-76
2022/11/16 10:43:00;;;;;;;;;;;14.20;99.90;;;;;;8415209;28;20129;-76
2022/11/16 10:47:04;;;;;;;;;;;14.80;99.90;;;;;;8430095;28;19924;-76
2022/11/16 10:51:07;;;;;;;;;;;15.40;99.90;;;;;;8405852;28;19930;-76
2022/11/16 11:00:27;;;;;;;;;;;16.20;99.90;;;;;;8403117;28;19969;-75
2022/11/16 11:04:30;;;;;;;;;;;16.10;99.90;;;;;;8393430;28;19959;-76
2022/11/16 11:08:31;;;;;;;;;;;16.60;99.90;;;;;;8401883;28;19924;-76
2022/11/16 11:12:39;;;;;;;;;;;17.00;99.90;;;;;;8389163;28;20249;-76
2022/11/16 11:16:41;;;;;;;;;;;17.40;99.90;;;;;;8394307;28;19928;-76
2022/11/16 11:20:44;;;;;;;;;;;17.70;99.90;;;;;;8397988;28;19928;-76
2022/11/16 11:24:47;;;;;;;;;;;18.10;99.90;;;;;;8390311;28;19935;-76
2022/11/16 11:28:49;;;;;;;;;;;18.60;99.90;;;;;;8381051;28;19931;-76
2022/11/16 11:32:51;;;;;;;;;;;19.20;99.90;;;;;;8392914;28;19977;-76
2022/11/16 11:37:00;;;;;;;;;;;19.50;99.90;;;;;;8398248;28;19928;-76
2022/11/16 11:41:04;;;;;;;;;;;19.70;99.90;;;;;;8396069;28;20011;-76
2022/11/16 11:45:07;;;;;;;;;;;19.80;99.90;;;;;;8393563;28;19978;-76
2022/11/16 11:49:15;;;;;;;;;;;19.80;99.90;;;;;;8395034;28;20372;-77
2022/11/16 11:53:33;;;;;;;;;;;19.30;99.90;;;;;;8395918;28;19927;-76
2022/11/16 11:57:37;;;;;;;;;;;18.40;99.90;;;;;;8380425;28;19998;-76
2022/11/16 12:01:50;;;;;;;;;;;17.50;99.90;;;;;;8377582;28;20419;-79
2022/11/16 12:06:06;;;;;;;;;;;16.80;99.90;;;;;;8378431;28;20045;-78
2022/11/16 12:10:16;;;;;;;;;;;16.10;99.90;;;;;;8398328;28;19930;-79
2022/11/16 12:14:27;;;;;;;;;;;15.60;99.90;;;;;;8385922;28;20554;-78
2022/11/16 12:18:29;;;;;;;;;;;15.20;99.90;;;;;;8396862;28;19925;-78
2022/11/16 12:22:53;;;;;;;;;;;14.90;99.90;;;;;;8399071;28;20027;-78
2022/11/16 12:26:57;;;;;;;;;;;14.70;99.90;;;;;;8398953;28;20749;-78
2022/11/16 12:31:19;;;;;;;;;;;14.70;99.90;;;;;;8383914;28;19927;-78
2022/11/16 12:35:31;;;;;;;;;;;14.90;99.90;;;;;;8390706;28;20401;-78
2022/11/16 12:39:33;;;;;;;;;;;15.00;99.90;;;;;;8394829;28;19931;-78
2022/11/16 12:43:35;;;;;;;;;;;15.10;99.90;;;;;;8373286;28;20070;-77
2022/11/16 12:47:53;;;;;;;;;;;15.70;99.90;;;;;;8391690;28;19928;-78
2022/11/16 12:51:55;;;;;;;;;;;16.30;99.90;;;;;;8377147;28;19942;-78
2022/11/16 12:56:00;;;;;;;;;;;17.10;99.90;;;;;;8395951;28;20245;-78
2022/11/16 13:00:06;;;;;;;;;;;17.80;99.90;;;;;;8393829;28;19925;-78
2022/11/16 13:09:14;;;;;;;;;;;18.40;99.90;;;;;;8397876;28;20130;-78
2022/11/16 13:13:24;;;;;;;;;;;18.00;99.90;;;;;;8395670;28;19952;-78
2022/11/16 13:17:42;;;;;;;;;;;17.50;99.90;;;;;;8389516;28;20306;-78
2022/11/16 13:21:49;;;;;;;;;;;16.90;99.90;;;;;;8388857;28;19928;-78
2022/11/16 13:26:11;;;;;;;;;;;16.50;99.90;;;;;;8389457;28;19932;-78
2022/11/16 13:30:17;;;;;;;;;;;16.10;99.90;;;;;;8394307;28;19932;-78
2022/11/16 13:34:22;;;;;;;;;;;15.60;99.90;;;;;;8375570;28;19963;-78
2022/11/16 13:38:47;;;;;;;;;;;15.30;99.90;;;;;;8396020;28;19963;-78
2022/11/16 13:43:07;;;;;;;;;;;15.10;99.90;;;;;;8391466;28;19930;-78
2022/11/16 13:47:29;;;;;;;;;;;15.00;99.90;;;;;;8392699;28;20314;-78
2022/11/16 13:51:31;;;;;;;;;;;14.80;99.90;;;;;;8387728;28;19939;-78
2022/11/16 13:55:34;;;;;;;;;;;14.70;99.90;;;;;;8391045;28;19947;-78
2022/11/16 13:59:35;;;;;;;;;;;14.80;99.90;;;;;;8392439;28;24329;-78
2022/11/16 14:03:38;;;;;;;;;;;15.00;99.90;;;;;;8388596;28;20406;-78
2022/11/16 14:07:43;;;;;;;;;;;15.00;99.90;;;;;;8400202;28;19924;-78
2022/11/16 14:11:45;;;;;;;;;;;15.00;99.90;;;;;;8392660;28;19929;-78
2022/11/16 14:16:06;;;;;;;;;;;14.90;99.90;;;;;;8398391;28;19931;-78
2022/11/16 14:20:11;;;;;;;;;;;14.80;99.90;;;;;;8392057;28;19924;-78
2022/11/16 14:24:16;;;;;;;;;;;14.70;99.90;;;;;;8392126;28;19928;-78
2022/11/16 14:28:31;;;;;;;;;;;14.70;99.90;;;;;;8397528;28;20336;-78
2022/11/16 14:32:34;;;;;;;;;;;14.80;99.90;;;;;;8382135;28;19924;-78
2022/11/16 14:36:43;;;;;;;;;;;15.30;99.90;;;;;;8399998;28;19924;-78
2022/11/16 14:40:45;;;;;;;;;;;16.20;99.90;;;;;;8400130;28;19928;-78
2022/11/16 14:44:48;;;;;;;;;;;17.10;99.90;;;;;;8397561;28;20010;-78
2022/11/16 14:48:53;;;;;;;;;;;17.80;99.90;;;;;;8395709;28;20401;-78
2022/11/16 14:53:04;;;;;;;;;;;18.10;99.90;;;;;;8393499;28;20015;-78
2022/11/16 14:57:11;;;;;;;;;;;17.60;99.90;;;;;;8399755;28;19940;-78
2022/11/16 15:01:13;;;;;;;;;;;16.90;99.90;;;;;;8391712;28;20034;-78
2022/11/16 15:05:17;;;;;;;;;;;16.10;99.90;;;;;;8399063;28;19934;-78
2022/11/16 15:09:36;;;;;;;;;;;15.60;99.90;;;;;;8379334;28;19928;-78
2022/11/16 15:13:38;;;;;;;;;;;15.20;99.90;;;;;;8410922;28;19939;-78
2022/11/16 15:17:52;;;;;;;;;;;14.80;99.90;;;;;;8400263;28;19929;-78
2022/11/16 15:21:57;;;;;;;;;;;14.70;99.90;;;;;;8390606;28;19928;-78
2022/11/16 15:26:01;;;;;;;;;;;14.50;99.90;;;;;;8384171;28;20018;-77
2022/11/16 15:30:13;;;;;;;;;;;14.30;99.90;;;;;;8393710;28;20016;-78
2022/11/16 15:34:16;;;;;;;;;;;14.20;99.90;;;;;;8397317;28;20182;-78
2022/11/16 15:38:31;;;;;;;;;;;14.10;99.90;;;;;;8400736;28;19932;-78
2022/11/16 15:42:33;;;;;;;;;;;13.90;99.90;;;;;;8395642;28;19929;-78
2022/11/16 15:46:35;;;;;;;;;;;13.80;99.90;;;;;;8392594;28;19928;-77
2022/11/16 15:50:37;;;;;;;;;;;13.70;99.90;;;;;;8396107;28;19932;-78
2022/11/16 15:55:24;;;;;;;;;;;13.60;99.90;;;;;;8390447;28;20035;-78
2022/11/16 15:59:01;;;;;;;;;;;13.40;99.90;;;;;;8384136;28;19932;-78
2022/11/16 16:03:04;;;;;;;;;;;13.30;99.90;;;;;;8389320;28;20439;-78
2022/11/16 16:07:07;;;;;;;;;;;13.10;99.90;;;;;;8393372;28;20018;-78
2022/11/16 16:11:10;;;;;;;;;;;13.00;99.90;;;;;;8394636;28;19925;-78
2022/11/16 16:15:19;;;;;;;;;;;12.90;99.90;;;;;;8387140;28;19954;-78
2022/11/16 16:19:26;;;;;;;;;;;12.90;99.90;;;;;;8385437;28;20019;-78
2022/11/16 16:23:28;;;;;;;;;;;12.80;99.90;;;;;;8392800;28;21506;-78
2022/11/16 16:27:30;;;;;;;;;;;12.80;99.90;;;;;;8403862;28;20010;-78
2022/11/16 16:31:32;;;;;;;;;;;12.80;99.90;;;;;;8394686;28;19924;-78
2022/11/16 16:35:34;;;;;;;;;;;12.70;99.90;;;;;;8378374;28;20314;-77
2022/11/16 16:39:37;;;;;;;;;;;12.60;99.90;;;;;;8384625;28;19934;-77
2022/11/16 16:43:39;;;;;;;;;;;12.60;99.90;;;;;;8396292;28;20018;-77
2022/11/16 16:47:40;;;;;;;;;;;12.50;99.90;;;;;;8386182;28;19934;-78
2022/11/16 16:51:42;;;;;;;;;;;12.50;99.90;;;;;;8393067;28;19928;-77
2022/11/16 16:55:46;;;;;;;;;;;12.40;99.90;;;;;;8388001;28;20315;-78
2022/11/16 16:59:48;;;;;;;;;;;12.40;99.90;;;;;;8394251;28;20352;-78
2022/11/16 17:03:49;;;;;;;;;;;12.30;99.90;;;;;;8394146;28;20027;-78
2022/11/16 17:07:53;;;;;;;;;;;12.20;99.90;;;;;;8392432;28;19928;-77
2022/11/16 17:11:55;;;;;;;;;;;12.20;99.90;;;;;;8390046;28;20018;-77
2022/11/16 17:15:57;;;;;;;;;;;12.10;99.90;;;;;;8392638;28;19923;-78
2022/11/16 17:24:55;;;;;;;;;;;12.00;99.90;;;;;;8388966;28;19963;-77
2022/11/16 17:28:57;;;;;;;;;;;11.90;99.90;;;;;;8400760;28;20003;-77
2022/11/16 17:32:58;;;;;;;;;;;11.90;99.90;;;;;;8400556;28;20020;-77
2022/11/16 17:37:00;;;;;;;;;;;11.80;99.90;;;;;;8394379;28;20011;-77
2022/11/16 17:41:06;;;;;;;;;;;11.80;99.90;;;;;;8387521;28;20352;-77
2022/11/16 17:45:08;;;;;;;;;;;11.70;99.90;;;;;;8394335;28;20458;-78
2022/11/16 17:49:09;;;;;;;;;;;11.70;99.90;;;;;;8392505;28;19979;-78
2022/11/16 17:53:11;;;;;;;;;;;11.60;99.90;;;;;;8398866;28;20059;-77
2022/11/16 17:57:12;;;;;;;;;;;11.60;99.90;;;;;;8387347;28;20031;-78
2022/11/16 18:01:15;;;;;;;;;;;11.60;99.90;;;;;;8400062;28;19934;-77
2022/11/16 18:05:16;;;;;;;;;;;11.60;99.90;;;;;;8382722;28;20287;-78
2022/11/16 18:09:18;;;;;;;;;;;11.60;99.90;;;;;;8394772;28;19984;-78
2022/11/16 18:13:20;;;;;;;;;;;11.60;99.90;;;;;;8408102;28;19932;-77
2022/11/16 18:17:21;;;;;;;;;;;11.60;99.90;;;;;;8397835;28;19928;-78
2022/11/16 18:21:23;;;;;;;;;;;11.60;99.90;;;;;;8398985;28;19928;-78
2022/11/16 18:25:25;;;;;;;;;;;11.60;99.90;;;;;;8386851;28;19934;-78
2022/11/16 18:29:30;;;;;;;;;;;11.60;99.90;;;;;;8385082;28;19924;-78
2022/11/16 18:33:32;;;;;;;;;;;11.60;99.90;;;;;;8394554;28;20298;-78
2022/11/16 18:37:34;;;;;;;;;;;11.60;99.90;;;;;;8393555;28;19931;-78
2022/11/16 18:41:41;;;;;;;;;;;11.60;99.90;;;;;;8408044;28;19979;-78
2022/11/16 18:45:43;;;;;;;;;;;11.60;99.90;;;;;;8408571;28;19934;-77
2022/11/16 18:49:45;;;;;;;;;;;11.60;99.90;;;;;;8400904;28;19928;-78
2022/11/16 18:53:46;;;;;;;;;;;11.50;99.90;;;;;;8407740;28;20302;-78
2022/11/16 18:57:48;;;;;;;;;;;11.50;99.90;;;;;;8391282;28;19929;-78
2022/11/16 19:01:50;;;;;;;;;;;11.50;99.90;;;;;;8401473;28;19934;-77
2022/11/16 19:05:55;;;;;;;;;;;11.50;99.90;;;;;;8403567;28;19924;-78
2022/11/16 19:09:57;;;;;;;;;;;11.40;99.90;;;;;;8408274;28;20344;-78
2022/11/16 19:14:07;;;;;;;;;;;11.40;99.90;;;;;;8395139;28;19928;-77
2022/11/16 19:18:09;;;;;;;;;;;11.40;99.90;;;;;;8407184;28;20023;-78
2022/11/16 19:22:22;;;;;;;;;;;11.40;99.90;;;;;;8406100;28;19948;-78
2022/11/16 19:26:24;;;;;;;;;;;11.40;99.90;;;;;;8407081;28;19929;-77
2022/11/16 19:30:26;;;;;;;;;;;11.30;99.90;;;;;;8385362;28;19930;-78
2022/11/16 19:34:28;;;;;;;;;;;11.30;99.90;;;;;;8385413;28;19929;-77
2022/11/16 19:38:33;;;;;;;;;;;11.30;99.90;;;;;;8385114;28;19931;-77
2022/11/16 19:42:35;;;;;;;;;;;11.40;99.90;;;;;;8400905;28;19964;-77
2022/11/16 19:46:37;;;;;;;;;;;11.30;99.90;;;;;;8389956;28;20382;-78
2022/11/16 19:50:38;;;;;;;;;;;11.30;99.90;;;;;;8397989;28;19938;-77
2022/11/16 19:54:40;;;;;;;;;;;11.30;99.90;;;;;;8405032;28;20007;-78
2022/11/16 19:58:42;;;;;;;;;;;11.30;99.90;;;;;;8384530;28;19932;-78
2022/11/16 20:02:43;;;;;;;;;;;11.30;99.90;;;;;;8371369;28;19928;-77
2022/11/16 20:06:45;;;;;;;;;;;11.30;99.90;;;;;;8397186;28;20389;-78
2022/11/16 20:10:47;;;;;;;;;;;11.30;99.90;;;;;;8402142;28;20283;-77
2022/11/16 20:14:48;;;;;;;;;;;11.30;99.90;;;;;;8402294;28;19930;-78
2022/11/16 20:18:50;;;;;;;;;;;11.30;99.90;;;;;;8399741;28;19928;-77
2022/11/16 20:22:52;;;;;;;;;;;11.30;99.90;;;;;;8387355;28;20639;-77
2022/11/16 20:26:54;;;;;;;;;;;11.30;99.90;;;;;;8397910;28;19931;-78
2022/11/16 20:30:55;;;;;;;;;;;11.30;99.90;;;;;;8394289;28;19928;-78
2022/11/16 20:34:59;;;;;;;;;;;11.30;99.90;;;;;;8388299;28;21270;-78
2022/11/16 20:39:00;;;;;;;;;;;11.30;99.90;;;;;;8392796;28;19950;-78
2022/11/16 20:43:02;;;;;;;;;;;11.30;99.90;;;;;;8399888;28;24207;-77
2022/11/16 20:47:04;;;;;;;;;;;11.30;99.90;;;;;;8394349;28;20427;-77
2022/11/16 20:51:06;;;;;;;;;;;11.30;99.90;;;;;;8376879;28;19970;-77
2022/11/16 20:55:08;;;;;;;;;;;11.30;99.90;;;;;;8393063;28;19928;-77
2022/11/16 20:59:09;;;;;;;;;;;11.20;99.90;;;;;;8389265;28;20430;-77
2022/11/16 21:03:11;;;;;;;;;;;11.30;99.90;;;;;;8395892;28;19938;-78
2022/11/16 21:07:13;;;;;;;;;;;11.30;99.90;;;;;;8393656;28;19924;-77
2022/11/16 21:11:22;;;;;;;;;;;11.30;99.90;;;;;;8404192;28;19924;-78
2022/11/16 21:15:23;;;;;;;;;;;11.30;99.90;;;;;;8386556;28;19939;-77
2022/11/16 21:19:25;;;;;;;;;;;11.30;99.90;;;;;;8392362;28;19928;-77
2022/11/16 21:23:27;;;;;;;;;;;11.30;99.90;;;;;;8373931;28;20573;-78
2022/11/16 21:27:29;;;;;;;;;;;11.30;99.90;;;;;;8386240;28;19964;-78
2022/11/16 21:31:31;;;;;;;;;;;11.30;99.90;;;;;;8390152;28;20019;-78
2022/11/16 21:35:33;;;;;;;;;;;11.30;99.90;;;;;;8396219;28;20295;-78
2022/11/16 21:39:34;;;;;;;;;;;11.30;99.90;;;;;;8374498;28;19940;-78
2022/11/16 21:43:36;;;;;;;;;;;11.40;99.90;;;;;;8395212;28;19934;-78
2022/11/16 21:47:38;;;;;;;;;;;11.30;99.90;;;;;;8383549;28;19974;-77
2022/11/16 21:56:43;;;;;;;;;;;11.30;99.90;;;;;;8403488;28;19948;-78
2022/11/16 22:10:16;;;;;;;;;;;11.30;99.90;;;;;;8419753;28;19927;-77
2022/11/16 22:14:18;;;;;;;;;;;11.30;99.90;;;;;;8416309;28;20271;-77
2022/11/16 22:18:19;;;;;;;;;;;11.30;99.90;;;;;;8400646;28;19924;-77
2022/11/16 22:22:21;;;;;;;;;;;11.30;99.90;;;;;;8404218;28;20297;-77
2022/11/16 22:26:23;;;;;;;;;;;11.40;99.90;;;;;;8421169;28;20006;-77
2022/11/16 22:30:24;;;;;;;;;;;11.40;99.90;;;;;;8419930;28;19924;-78
2022/11/16 22:34:26;;;;;;;;;;;11.30;99.90;;;;;;8425431;28;19931;-77
2022/11/16 22:38:27;;;;;;;;;;;11.30;99.90;;;;;;8430052;28;20047;-77
2022/11/16 22:42:29;;;;;;;;;;;11.30;99.90;;;;;;8411056;28;19925;-78
2022/11/16 22:46:31;;;;;;;;;;;11.30;99.90;;;;;;8415714;28;20361;-77
2022/11/16 22:50:32;;;;;;;;;;;11.30;99.90;;;;;;8405222;28;19928;-77
2022/11/16 22:54:36;;;;;;;;;;;11.20;99.90;;;;;;8403600;28;19963;-78
2022/11/16 22:58:38;;;;;;;;;;;11.20;99.90;;;;;;8403372;28;20019;-77
2022/11/16 23:02:40;;;;;;;;;;;11.10;99.90;;;;;;8401359;28;19924;-78
2022/11/16 23:06:41;;;;;;;;;;;11.10;99.90;;;;;;8429074;28;19930;-78
2022/11/16 23:28:04;;;;;;;;;;;11.00;99.90;;;;;;8408759;28;20372;-78
2022/11/16 23:32:06;;;;;;;;;;;11.00;99.90;;;;;;8419394;28;20287;-78
2022/11/16 23:36:08;;;;;;;;;;;10.90;99.90;;;;;;8395901;28;19924;-78
2022/11/16 23:40:12;;;;;;;;;;;10.90;99.90;;;;;;8413803;28;19977;-78
2022/11/16 23:44:13;;;;;;;;;;;10.90;99.90;;;;;;8400253;28;22555;-78
2022/11/16 23:48:17;;;;;;;;;;;10.90;99.90;;;;;;8417864;28;19932;-78
2022/11/16 23:52:18;;;;;;;;;;;10.90;99.90;;;;;;8414236;28;19925;-78
2022/11/16 23:56:22;;;;;;;;;;;10.90;99.90;;;;;;8401900;28;19931;-78
